Time;durP1;ratioP1;P1;durP2;ratioP2;P2;SDS_P1;SDS_P2;PMS_P1;PMS_P2;Temp;Humidity;BMP_temperature;BMP_pressure;BME280_temperature;BME280_humidity;BME280_pressure;Samples;Min_cycle;Max_cycle;Signal;HPM_P1;HPM_P2
2022/10/30 00:00:18;;;;;;;5.63;1.93;;;15.00;99.90;;;;;;5051331;28;20654;-65
2022/10/30 00:02:46;;;;;;;6.00;1.93;;;15.00;99.90;;;;;;5050914;28;20419;-65
2022/10/30 00:05:11;;;;;;;7.10;2.70;;;15.00;99.90;;;;;;5051518;28;20268;-65
2022/10/30 00:07:37;;;;;;;5.50;2.20;;;15.10;99.90;;;;;;5051548;28;20562;-65
2022/10/30 00:10:03;;;;;;;5.43;1.47;;;15.10;99.90;;;;;;5051037;28;20182;-65
2022/10/30 00:12:28;;;;;;;5.63;1.80;;;15.30;99.90;;;;;;5043005;28;20193;-65
2022/10/30 00:14:54;;;;;;;4.57;2.50;;;15.30;99.90;;;;;;5051444;28;20205;-65
2022/10/30 00:17:20;;;;;;;7.03;2.20;;;15.30;99.90;;;;;;5051399;28;20174;-65
2022/10/30 00:19:45;;;;;;;6.33;1.73;;;15.30;99.90;;;;;;5051391;28;20185;-65
2022/10/30 00:22:11;;;;;;;5.23;2.27;;;15.30;99.90;;;;;;5050535;28;20178;-65
2022/10/30 00:24:36;;;;;;;4.03;1.73;;;15.40;99.90;;;;;;5050987;28;20550;-66
2022/10/30 00:27:02;;;;;;;2.53;1.10;;;15.30;99.90;;;;;;5050319;28;20216;-66
2022/10/30 00:29:28;;;;;;;6.23;2.20;;;15.30;99.90;;;;;;5051275;28;20228;-66
2022/10/30 00:31:53;;;;;;;13.50;2.80;;;15.20;99.90;;;;;;5049610;28;20188;-66
2022/10/30 00:34:19;;;;;;;5.20;1.80;;;15.10;99.90;;;;;;5051010;28;20190;-66
2022/10/30 00:36:45;;;;;;;4.87;1.60;;;15.10;99.90;;;;;;5050934;28;20216;-66
2022/10/30 00:39:10;;;;;;;5.03;2.13;;;15.00;99.90;;;;;;5050853;28;20270;-66
2022/10/30 00:41:38;;;;;;;6.43;1.93;;;15.00;99.90;;;;;;5049569;28;20182;-66
2022/10/30 00:44:32;;;;;;;2.17;0.97;;;14.90;99.90;;;;;;5050660;28;20204;-66
2022/10/30 00:47:03;;;;;;;2.30;1.17;;;14.90;99.90;;;;;;5050938;28;20839;-66
2022/10/30 00:49:33;;;;;;;9.67;1.70;;;14.80;99.90;;;;;;5053044;28;20420;-65
2022/10/30 00:52:01;;;;;;;5.63;1.43;;;14.80;99.90;;;;;;5054311;28;20427;-66
2022/10/30 00:54:27;;;;;;;6.27;2.00;;;14.70;99.90;;;;;;5054798;28;20428;-66
2022/10/30 00:56:53;;;;;;;11.13;2.97;;;14.80;99.90;;;;;;5054048;28;20455;-66
2022/10/30 00:59:27;;;;;;;5.10;1.50;;;14.70;99.90;;;;;;5054715;28;20631;-66
2022/10/30 01:01:53;;;;;;;6.00;2.20;;;14.70;99.90;;;;;;5054088;28;20423;-66
2022/10/30 01:04:21;;;;;;;10.83;1.70;;;14.60;99.90;;;;;;5054324;28;20430;-66
2022/10/30 01:06:50;;;;;;;12.03;2.47;;;14.50;99.90;;;;;;5054165;28;20428;-66
2022/10/30 01:09:18;;;;;;;4.70;1.87;;;14.40;99.90;;;;;;5053881;28;20428;-66
2022/10/30 01:11:44;;;;;;;8.37;2.50;;;14.40;99.90;;;;;;5048650;28;20547;-65
2022/10/30 01:14:13;;;;;;;3.97;2.10;;;14.30;99.90;;;;;;5051864;28;20511;-65
2022/10/30 01:17:15;;;;;;;8.40;2.20;;;14.30;99.90;;;;;;5054195;28;20197;-66
2022/10/30 01:20:07;;;;;;;3.43;1.40;;;14.20;99.90;;;;;;5054531;28;20466;-66
2022/10/30 01:22:50;;;;;;;8.10;2.03;;;14.20;99.90;;;;;;5049343;28;20428;-63
2022/10/30 01:25:19;;;;;;;12.00;1.50;;;14.30;99.90;;;;;;5053657;28;20459;-65
2022/10/30 01:27:57;;;;;;;5.13;2.00;;;14.20;99.90;;;;;;5053319;28;20768;-66
2022/10/30 01:30:48;;;;;;;8.93;1.60;;;14.30;99.90;;;;;;5053368;28;20435;-66
2022/10/30 01:33:37;;;;;;;6.57;2.90;;;14.20;99.90;;;;;;5053244;28;20438;-66
2022/10/30 01:36:31;;;;;;;10.70;3.00;;;14.20;99.90;;;;;;5053629;28;20555;-66
2022/10/30 01:39:01;;;;;;;6.03;2.33;;;14.20;99.90;;;;;;5053793;28;20446;-66
2022/10/30 01:41:27;;;;;;;6.30;1.83;;;14.20;99.90;;;;;;5053562;28;20465;-66
2022/10/30 01:44:01;;;;;;;3.90;1.73;;;14.20;99.90;;;;;;5053320;28;20440;-66
2022/10/30 01:46:55;;;;;;;6.77;2.60;;;14.10;99.90;;;;;;5053611;28;20208;-66
2022/10/30 01:49:42;;;;;;;15.33;2.10;;;14.10;99.90;;;;;;5052766;28;20520;-66
2022/10/30 01:52:13;;;;;;;3.33;1.77;;;14.20;99.90;;;;;;5053064;28;20927;-66
2022/10/30 01:54:56;;;;;;;2.87;1.43;;;14.20;99.90;;;;;;5052993;28;20416;-66
2022/10/30 01:57:38;;;;;;;11.17;1.87;;;14.20;99.90;;;;;;5052965;28;20435;-66
2022/10/30 02:00:10;;;;;;;6.43;1.57;;;14.10;99.90;;;;;;5053117;28;20934;-66
2022/10/30 02:02:36;;;;;;;4.17;1.80;;;14.10;99.90;;;;;;5052216;28;20427;-66
2022/10/30 02:05:03;;;;;;;14.03;2.90;;;14.00;99.90;;;;;;5053422;28;20426;-66
2022/10/30 02:07:29;;;;;;;7.13;2.07;;;14.00;99.90;;;;;;5053053;28;20429;-66
2022/10/30 02:09:55;;;;;;;5.83;1.77;;;13.90;99.90;;;;;;5053303;28;20431;-66
2022/10/30 02:12:22;;;;;;;5.80;2.20;;;13.90;99.90;;;;;;5044422;28;20261;-66
2022/10/30 02:14:51;;;;;;;6.73;1.77;;;13.90;99.90;;;;;;5053141;28;20446;-66
2022/10/30 02:17:18;;;;;;;4.10;1.80;;;13.80;99.90;;;;;;5047655;28;20420;-66
2022/10/30 02:19:44;;;;;;;7.30;2.13;;;13.80;99.90;;;;;;5052946;28;20451;-67
2022/10/30 02:22:10;;;;;;;5.10;1.67;;;13.80;99.90;;;;;;5052807;28;20443;-66
2022/10/30 02:24:36;;;;;;;3.60;1.73;;;13.70;99.90;;;;;;5053045;28;20193;-66
2022/10/30 02:27:02;;;;;;;5.17;2.40;;;13.70;99.90;;;;;;5052672;28;20424;-64
2022/10/30 02:29:27;;;;;;;3.17;1.90;;;13.70;99.90;;;;;;5053178;28;20189;-65
2022/10/30 02:31:53;;;;;;;7.60;2.10;;;13.70;99.90;;;;;;5051540;28;20213;-65
2022/10/30 02:34:19;;;;;;;2.50;1.60;;;13.70;99.90;;;;;;5053111;28;20209;-65
2022/10/30 02:36:44;;;;;;;2.43;1.07;;;13.80;99.90;;;;;;5052607;28;20197;-64
2022/10/30 02:39:10;;;;;;;7.83;3.17;;;13.70;99.90;;;;;;5052377;28;20186;-65
2022/10/30 02:41:36;;;;;;;4.77;1.73;;;13.80;99.90;;;;;;5051459;28;20186;-65
2022/10/30 02:44:02;;;;;;;5.07;2.27;;;13.90;99.90;;;;;;5052099;28;20658;-65
2022/10/30 02:46:27;;;;;;;4.77;2.20;;;13.90;99.90;;;;;;5052492;28;20278;-65
2022/10/30 02:48:53;;;;;;;15.13;3.00;;;13.90;99.90;;;;;;5052256;28;20459;-65
2022/10/30 02:51:19;;;;;;;4.30;1.60;;;13.80;99.90;;;;;;5052537;28;20189;-65
2022/10/30 02:53:46;;;;;;;4.97;2.30;;;13.90;99.90;;;;;;5052088;28;20260;-65
2022/10/30 02:56:13;;;;;;;9.80;2.03;;;13.80;99.90;;;;;;5052048;28;20213;-65
2022/10/30 02:58:39;;;;;;;4.13;1.43;;;13.80;99.90;;;;;;5051813;28;20893;-66
2022/10/30 03:01:14;;;;;;;8.10;2.10;;;13.80;99.90;;;;;;5052300;28;20430;-66
2022/10/30 03:03:41;;;;;;;4.17;2.10;;;13.70;99.90;;;;;;5051898;28;20879;-66
2022/10/30 03:06:10;;;;;;;7.27;2.30;;;13.90;99.90;;;;;;5052173;28;20428;-66
2022/10/30 03:08:36;;;;;;;3.00;1.70;;;13.70;99.90;;;;;;5052057;28;20409;-66
2022/10/30 03:11:10;;;;;;;5.33;1.70;;;13.70;99.90;;;;;;5052095;28;20424;-66
2022/10/30 03:13:37;;;;;;;8.63;2.50;;;13.60;99.90;;;;;;5043275;28;20503;-66
2022/10/30 03:16:14;;;;;;;15.97;2.70;;;13.60;99.90;;;;;;5052364;28;20510;-66
2022/10/30 03:18:40;;;;;;;4.30;2.20;;;13.50;99.90;;;;;;5051980;28;20419;-66
2022/10/30 03:21:08;;;;;;;3.43;1.90;;;13.50;99.90;;;;;;5052165;28;20423;-66
2022/10/30 03:23:34;;;;;;;7.60;1.53;;;13.40;99.90;;;;;;5049992;28;20203;-66
2022/10/30 03:26:00;;;;;;;5.40;2.07;;;13.40;99.90;;;;;;5051593;28;20899;-65
2022/10/30 03:28:27;;;;;;;3.43;2.00;;;13.30;99.90;;;;;;5051326;28;20424;-65
2022/10/30 03:31:04;;;;;;;7.30;2.70;;;13.30;99.90;;;;;;5051331;28;20182;-66
2022/10/30 03:33:31;;;;;;;5.83;2.07;;;13.20;99.90;;;;;;5051074;28;20976;-65
2022/10/30 03:35:57;;;;;;;6.57;2.10;;;13.20;99.90;;;;;;5051624;28;20459;-66
2022/10/30 03:38:23;;;;;;;4.73;1.67;;;13.20;99.90;;;;;;5051580;28;20419;-66
2022/10/30 03:40:49;;;;;;;7.00;2.20;;;13.10;99.90;;;;;;5051617;28;20462;-66
2022/10/30 03:43:15;;;;;;;5.10;2.40;;;13.00;99.90;;;;;;5050007;28;20219;-66
2022/10/30 03:45:46;;;;;;;6.33;1.90;;;12.90;99.90;;;;;;5051509;28;20572;-66
2022/10/30 03:48:11;;;;;;;5.17;1.77;;;12.90;99.90;;;;;;5051457;28;20182;-66
2022/10/30 03:50:37;;;;;;;9.80;2.00;;;12.90;99.90;;;;;;5051447;28;20935;-66
2022/10/30 03:53:03;;;;;;;3.37;1.27;;;12.80;99.90;;;;;;5050906;28;20191;-66
2022/10/30 03:55:29;;;;;;;6.50;2.77;;;12.80;99.90;;;;;;5050962;28;21017;-66
2022/10/30 03:57:54;;;;;;;6.27;2.47;;;12.70;99.90;;;;;;5050953;28;20440;-66
2022/10/30 04:00:20;;;;;;;3.50;1.47;;;12.70;99.90;;;;;;5051658;28;20264;-65
2022/10/30 04:02:50;;;;;;;8.60;2.33;;;12.70;99.90;;;;;;5051362;28;20188;-66
2022/10/30 04:05:18;;;;;;;3.53;1.53;;;12.60;99.90;;;;;;5051791;28;20208;-65
2022/10/30 04:07:43;;;;;;;3.33;1.67;;;12.60;99.90;;;;;;5051172;28;20417;-66
2022/10/30 04:10:10;;;;;;;5.97;2.03;;;12.60;99.90;;;;;;5051216;28;20510;-65
2022/10/30 04:12:36;;;;;;;3.20;1.80;;;12.50;99.90;;;;;;5043251;28;20585;-66
2022/10/30 04:15:03;;;;;;;4.80;2.40;;;12.50;99.90;;;;;;5051071;28;20921;-65
2022/10/30 04:17:28;;;;;;;10.43;2.50;;;12.50;99.90;;;;;;5051160;28;20420;-65
2022/10/30 04:19:54;;;;;;;5.97;1.83;;;12.40;99.90;;;;;;5051214;28;20535;-66
2022/10/30 04:22:19;;;;;;;12.23;1.73;;;12.40;99.90;;;;;;5049435;28;20190;-66
2022/10/30 04:24:47;;;;;;;9.83;2.23;;;12.40;99.90;;;;;;5053758;28;20268;-66
2022/10/30 04:27:13;;;;;;;3.97;1.87;;;12.20;99.90;;;;;;5054985;28;20178;-65
2022/10/30 04:29:40;;;;;;;7.37;2.30;;;12.30;99.90;;;;;;5054605;28;20412;-66
2022/10/30 04:32:07;;;;;;;7.40;2.60;;;12.30;99.90;;;;;;5054401;28;20174;-66
2022/10/30 04:34:32;;;;;;;5.60;1.93;;;12.20;99.90;;;;;;5055329;28;20431;-66
2022/10/30 04:36:58;;;;;;;7.17;2.80;;;12.20;99.90;;;;;;5054906;28;20471;-66
2022/10/30 04:39:23;;;;;;;5.50;1.67;;;12.20;99.90;;;;;;5054944;28;20186;-66
2022/10/30 04:41:49;;;;;;;6.70;2.47;;;12.20;99.90;;;;;;5053660;28;20174;-65
2022/10/30 04:44:14;;;;;;;5.60;2.90;;;12.20;99.90;;;;;;5055065;28;20818;-66
2022/10/30 04:46:40;;;;;;;4.37;2.07;;;12.10;99.90;;;;;;5054941;28;20213;-66
2022/10/30 04:49:06;;;;;;;6.23;2.07;;;12.10;99.90;;;;;;5055204;28;20194;-66
2022/10/30 04:51:31;;;;;;;5.60;2.33;;;12.10;99.90;;;;;;5054701;28;20186;-66
2022/10/30 04:53:57;;;;;;;5.70;2.40;;;12.00;99.90;;;;;;5054863;28;20270;-65
2022/10/30 04:56:23;;;;;;;3.13;1.53;;;12.00;99.90;;;;;;5054599;28;20245;-66
2022/10/30 04:58:49;;;;;;;4.30;1.90;;;12.00;99.90;;;;;;5054229;28;20961;-66
2022/10/30 05:01:14;;;;;;;7.53;1.67;;;11.90;99.90;;;;;;5054427;28;20236;-66
2022/10/30 05:03:40;;;;;;;11.07;2.20;;;11.80;99.90;;;;;;5054185;28;20648;-66
2022/10/30 05:06:13;;;;;;;3.20;1.50;;;11.90;99.90;;;;;;5054508;28;20738;-66
2022/10/30 05:08:39;;;;;;;2.73;1.40;;;11.70;99.90;;;;;;5054619;28;20265;-65
2022/10/30 05:11:04;;;;;;;2.80;1.80;;;11.70;99.90;;;;;;5053812;28;20981;-66
2022/10/30 05:13:31;;;;;;;5.50;1.70;;;11.60;99.90;;;;;;5045811;28;20189;-65
2022/10/30 05:15:56;;;;;;;2.30;1.23;;;11.60;99.90;;;;;;5054369;28;20284;-66
2022/10/30 05:18:22;;;;;;;6.40;2.60;;;11.60;99.90;;;;;;5054250;28;20519;-66
2022/10/30 05:20:47;;;;;;;4.63;2.10;;;11.50;99.90;;;;;;5054163;28;20178;-65
2022/10/30 05:23:13;;;;;;;3.67;1.67;;;11.50;99.90;;;;;;5053969;28;20506;-65
2022/10/30 05:25:38;;;;;;;7.27;2.07;;;11.50;99.90;;;;;;5054122;28;20182;-65
2022/10/30 05:28:05;;;;;;;3.73;1.47;;;11.40;99.90;;;;;;5053661;28;20181;-66
2022/10/30 05:30:33;;;;;;;3.60;2.20;;;11.40;99.90;;;;;;5053469;28;20772;-65
2022/10/30 05:33:00;;;;;;;3.30;1.57;;;11.40;99.90;;;;;;5053474;28;20523;-65
2022/10/30 05:35:26;;;;;;;3.43;1.43;;;11.40;99.90;;;;;;5053132;28;20502;-66
2022/10/30 05:37:52;;;;;;;3.00;1.77;;;11.40;99.90;;;;;;5054049;28;20893;-65
2022/10/30 05:40:17;;;;;;;9.23;3.20;;;11.40;99.90;;;;;;5053674;28;20427;-65
2022/10/30 05:42:47;;;;;;;4.20;2.20;;;11.30;99.90;;;;;;5052617;28;20189;-65
2022/10/30 05:45:13;;;;;;;3.73;2.20;;;11.40;99.90;;;;;;5053816;28;20606;-65
2022/10/30 05:47:39;;;;;;;5.80;1.80;;;11.30;99.90;;;;;;5053752;28;20428;-65
2022/10/30 05:50:05;;;;;;;6.57;2.17;;;11.20;99.90;;;;;;5040427;28;20413;-65
2022/10/30 05:52:31;;;;;;;6.70;1.97;;;11.20;99.90;;;;;;5053017;28;20189;-65
2022/10/30 05:54:56;;;;;;;14.23;3.23;;;11.20;99.90;;;;;;5053821;28;20458;-66
2022/10/30 05:57:22;;;;;;;10.60;2.93;;;11.10;99.90;;;;;;5053343;28;20189;-65
2022/10/30 05:59:48;;;;;;;5.10;2.30;;;11.10;99.90;;;;;;5053971;28;20181;-65
2022/10/30 06:02:15;;;;;;;3.10;1.57;;;11.10;99.90;;;;;;5052933;28;20232;-65
2022/10/30 06:04:40;;;;;;;3.30;1.80;;;11.20;99.90;;;;;;5053579;28;20178;-65
2022/10/30 06:07:06;;;;;;;3.53;1.53;;;11.10;99.90;;;;;;5053305;28;20425;-65
2022/10/30 06:09:31;;;;;;;9.30;1.93;;;11.10;99.90;;;;;;5053354;28;20638;-65
2022/10/30 06:11:57;;;;;;;3.50;1.20;;;11.20;99.90;;;;;;5046275;28;20193;-66
2022/10/30 06:14:23;;;;;;;17.97;2.33;;;11.10;99.90;;;;;;5052468;28;20185;-66
2022/10/30 06:16:49;;;;;;;7.90;2.20;;;11.10;99.90;;;;;;5053296;28;20224;-66
2022/10/30 06:19:14;;;;;;;4.97;2.00;;;11.10;99.90;;;;;;5053280;28;20223;-66
2022/10/30 06:21:40;;;;;;;10.73;2.97;;;11.00;99.90;;;;;;5052873;28;20408;-66
2022/10/30 06:24:06;;;;;;;5.13;2.00;;;11.10;99.90;;;;;;5053251;28;20196;-66
2022/10/30 06:26:31;;;;;;;4.63;1.83;;;11.00;99.90;;;;;;5052822;28;20269;-64
2022/10/30 06:28:57;;;;;;;11.20;2.63;;;11.00;99.90;;;;;;5052533;28;20527;-64
2022/10/30 06:31:23;;;;;;;2.73;1.60;;;11.00;99.90;;;;;;5052418;28;20186;-64
2022/10/30 06:33:48;;;;;;;9.33;3.03;;;11.00;99.90;;;;;;5052312;28;20213;-64
2022/10/30 06:36:16;;;;;;;4.27;1.80;;;11.10;99.90;;;;;;5052797;28;20247;-64
2022/10/30 06:38:42;;;;;;;4.00;2.13;;;11.10;99.90;;;;;;5052608;28;20269;-65
2022/10/30 06:41:07;;;;;;;15.97;1.57;;;11.10;99.90;;;;;;5052661;28;20972;-64
2022/10/30 06:43:33;;;;;;;11.97;3.10;;;11.20;99.90;;;;;;5051317;28;20182;-64
2022/10/30 06:45:59;;;;;;;5.60;2.67;;;11.30;99.90;;;;;;5052746;28;20197;-64
2022/10/30 06:48:24;;;;;;;8.27;2.50;;;11.30;99.90;;;;;;5052098;28;20189;-64
2022/10/30 06:50:58;;;;;;;8.17;2.27;;;11.30;99.90;;;;;;5052775;28;20259;-64
2022/10/30 06:53:24;;;;;;;6.60;1.90;;;11.30;99.90;;;;;;5052096;28;20190;-64
2022/10/30 06:56:02;;;;;;;7.47;2.00;;;11.40;99.90;;;;;;5052066;28;20452;-64
2022/10/30 06:58:29;;;;;;;4.73;2.17;;;11.40;99.90;;;;;;5052223;28;20423;-65
2022/10/30 07:00:55;;;;;;;5.83;2.57;;;11.50;99.90;;;;;;5052312;28;20435;-64
2022/10/30 07:03:20;;;;;;;5.30;2.40;;;11.50;99.90;;;;;;5051895;28;20408;-64
2022/10/30 07:05:46;;;;;;;4.33;1.50;;;11.60;99.90;;;;;;5052435;28;20872;-64
2022/10/30 07:08:12;;;;;;;10.43;2.00;;;11.70;99.90;;;;;;5052205;28;20192;-64
2022/10/30 07:10:39;;;;;;;6.13;2.00;;;11.80;99.90;;;;;;5052783;28;20637;-65
2022/10/30 07:13:04;;;;;;;3.93;2.20;;;11.80;99.90;;;;;;5043672;28;20442;-65
2022/10/30 07:15:30;;;;;;;9.87;2.50;;;11.90;99.90;;;;;;5051802;28;21248;-65
2022/10/30 07:18:01;;;;;;;5.03;2.03;;;12.00;99.90;;;;;;5051936;28;20181;-65
2022/10/30 07:20:29;;;;;;;4.27;1.70;;;12.10;99.90;;;;;;5046332;28;20272;-65
2022/10/30 07:22:54;;;;;;;4.40;2.10;;;12.10;99.90;;;;;;5051643;28;20515;-65
2022/10/30 07:25:21;;;;;;;5.80;2.40;;;12.20;99.90;;;;;;5051674;28;20823;-65
2022/10/30 07:27:48;;;;;;;7.07;2.43;;;12.20;99.90;;;;;;5051443;28;20688;-65
2022/10/30 07:30:16;;;;;;;4.30;2.07;;;12.30;99.90;;;;;;5051049;28;20889;-65
2022/10/30 07:32:42;;;;;;;3.33;1.70;;;12.30;99.90;;;;;;5051466;28;20424;-66
2022/10/30 07:35:09;;;;;;;4.60;1.93;;;12.40;99.90;;;;;;5051979;28;20428;-64
2022/10/30 07:37:35;;;;;;;5.00;2.77;;;12.40;99.90;;;;;;5052102;28;20420;-64
2022/10/30 07:40:01;;;;;;;4.80;2.03;;;12.40;99.90;;;;;;5052015;28;20419;-65
2022/10/30 07:42:27;;;;;;;5.63;2.33;;;12.50;99.90;;;;;;5050594;28;20205;-65
2022/10/30 07:44:52;;;;;;;5.50;2.20;;;12.60;99.90;;;;;;5053102;28;20451;-66
2022/10/30 07:47:18;;;;;;;7.20;2.63;;;12.60;99.90;;;;;;5053233;28;20177;-65
2022/10/30 07:49:44;;;;;;;6.30;2.30;;;12.70;99.90;;;;;;5053958;28;20569;-66
2022/10/30 07:52:09;;;;;;;3.37;2.07;;;12.80;99.90;;;;;;5055072;28;20642;-66
2022/10/30 07:54:35;;;;;;;5.77;3.03;;;12.90;99.90;;;;;;5057333;28;20193;-65
2022/10/30 07:57:00;;;;;;;3.97;2.53;;;13.00;99.90;;;;;;5066633;28;20280;-65
2022/10/30 07:59:26;;;;;;;4.47;2.53;;;13.20;99.90;;;;;;5052392;28;20618;-65
2022/10/30 08:01:51;;;;;;;10.50;2.13;;;13.40;99.90;;;;;;5055915;28;20196;-65
2022/10/30 08:04:17;;;;;;;5.33;2.47;;;13.60;99.90;;;;;;5067919;28;20193;-65
2022/10/30 08:06:43;;;;;;;4.60;1.80;;;13.80;99.90;;;;;;5057447;28;20264;-65
2022/10/30 08:09:08;;;;;;;9.27;2.20;;;14.10;99.90;;;;;;5051944;28;20182;-66
2022/10/30 08:11:34;;;;;;;6.90;2.00;;;14.40;99.90;;;;;;5047871;28;20222;-66
2022/10/30 08:14:00;;;;;;;3.87;2.27;;;14.70;99.90;;;;;;5047170;28;20185;-66
2022/10/30 08:16:25;;;;;;;4.73;2.03;;;15.00;99.90;;;;;;5051430;28;20248;-66
2022/10/30 08:18:51;;;;;;;6.53;1.87;;;15.40;99.90;;;;;;5051100;28;20182;-66
2022/10/30 08:21:17;;;;;;;4.73;1.93;;;15.80;99.90;;;;;;5051489;28;20197;-66
2022/10/30 08:23:42;;;;;;;7.03;2.43;;;16.00;99.90;;;;;;5050642;28;20185;-66
2022/10/30 08:26:08;;;;;;;5.53;1.60;;;16.40;99.90;;;;;;5050954;28;20959;-66
2022/10/30 08:28:33;;;;;;;4.00;1.80;;;16.60;99.90;;;;;;5050760;28;20182;-66
2022/10/30 08:31:01;;;;;;;4.60;1.67;;;16.80;99.90;;;;;;5050596;28;20529;-66
2022/10/30 08:33:27;;;;;;;4.23;1.73;;;17.00;99.90;;;;;;5050546;28;20243;-66
2022/10/30 08:35:55;;;;;;;10.57;1.80;;;17.00;99.90;;;;;;5051187;28;20955;-66
2022/10/30 08:38:22;;;;;;;2.40;1.47;;;17.10;99.90;;;;;;5051190;28;21061;-66
2022/10/30 08:40:47;;;;;;;19.63;1.60;;;17.00;99.90;;;;;;5051333;28;20419;-66
2022/10/30 08:43:13;;;;;;;5.43;2.83;;;17.00;99.90;;;;;;5037326;28;20420;-66
2022/10/30 08:45:40;;;;;;;3.23;1.70;;;17.00;99.90;;;;;;5051318;28;20727;-64
2022/10/30 08:48:08;;;;;;;3.27;1.53;;;17.00;99.90;;;;;;5050973;28;20420;-65
2022/10/30 08:50:34;;;;;;;4.17;1.80;;;17.00;99.90;;;;;;5050886;28;20496;-65
2022/10/30 08:53:04;;;;;;;3.77;1.63;;;17.00;99.90;;;;;;5050220;28;20510;-66
2022/10/30 08:55:31;;;;;;;2.80;1.27;;;17.00;99.90;;;;;;5043476;28;20237;-65
2022/10/30 08:57:57;;;;;;;4.80;2.10;;;17.00;99.90;;;;;;5050239;28;20426;-65
2022/10/30 09:00:23;;;;;;;3.93;1.43;;;17.00;99.90;;;;;;5051003;28;20408;-65
2022/10/30 09:02:49;;;;;;;20.43;2.47;;;17.00;99.90;;;;;;5050262;28;20507;-65
2022/10/30 09:05:14;;;;;;;4.60;1.70;;;16.90;99.90;;;;;;5050763;28;20424;-65
2022/10/30 09:07:40;;;;;;;7.67;1.63;;;17.00;99.90;;;;;;5050637;28;20831;-65
2022/10/30 09:10:06;;;;;;;4.30;1.57;;;17.00;99.90;;;;;;5050473;28;20267;-65
2022/10/30 09:12:31;;;;;;;8.93;1.53;;;17.20;99.90;;;;;;5046019;28;20699;-65
2022/10/30 09:14:57;;;;;;;5.33;1.90;;;17.30;99.90;;;;;;5054036;28;20491;-65
2022/10/30 09:17:23;;;;;;;4.70;1.93;;;17.30;99.90;;;;;;5054274;28;20174;-65
2022/10/30 09:19:48;;;;;;;3.47;1.00;;;17.50;99.90;;;;;;5054067;28;20182;-65
2022/10/30 09:22:14;;;;;;;5.00;1.53;;;17.50;99.90;;;;;;5053816;28;20265;-65
2022/10/30 09:24:39;;;;;;;5.40;1.40;;;17.50;99.90;;;;;;5054451;28;20216;-65
2022/10/30 09:27:05;;;;;;;4.27;1.80;;;17.50;99.90;;;;;;5053668;28;20190;-65
2022/10/30 09:29:31;;;;;;;6.20;2.07;;;17.80;99.60;;;;;;5054331;28;20261;-65
2022/10/30 09:31:58;;;;;;;1.70;0.90;;;18.00;99.00;;;;;;5052513;28;20527;-65
2022/10/30 09:34:24;;;;;;;13.20;2.00;;;18.10;99.30;;;;;;5054114;28;20209;-65
2022/10/30 09:36:49;;;;;;;2.97;0.90;;;18.10;99.20;;;;;;5053639;28;20463;-65
2022/10/30 09:39:15;;;;;;;3.20;1.40;;;18.20;98.90;;;;;;5053911;28;20206;-65
2022/10/30 09:42:06;;;;;;;2.17;1.20;;;18.20;98.00;;;;;;5052010;28;20226;-66
2022/10/30 09:44:42;;;;;;;2.90;1.00;;;18.40;97.70;;;;;;5053594;28;20228;-66
2022/10/30 09:47:48;;;;;;;3.43;1.53;;;18.60;96.60;;;;;;5053695;28;20428;-66
2022/10/30 09:50:32;;;;;;;3.90;1.50;;;18.80;96.50;;;;;;5053799;28;20427;-66
2022/10/30 09:53:29;;;;;;;4.93;2.00;;;19.00;95.40;;;;;;5053016;28;20546;-66
2022/10/30 09:56:25;;;;;;;9.27;1.53;;;19.20;95.20;;;;;;5053196;28;20814;-66
2022/10/30 09:59:05;;;;;;;13.57;1.30;;;19.30;94.80;;;;;;5052888;28;20417;-66
2022/10/30 10:01:56;;;;;;;3.67;1.50;;;19.50;93.80;;;;;;5053106;28;20411;-66
2022/10/30 10:04:32;;;;;;;2.17;1.10;;;19.80;93.00;;;;;;5053385;28;20448;-66
2022/10/30 10:07:06;;;;;;;6.03;1.70;;;20.00;94.40;;;;;;5053494;28;20771;-66
2022/10/30 10:09:33;;;;;;;3.20;1.33;;;20.20;93.90;;;;;;5052838;28;21063;-66
2022/10/30 10:12:11;;;;;;;11.27;1.40;;;20.30;94.00;;;;;;5045662;28;20445;-66
2022/10/30 10:14:45;;;;;;;3.90;1.80;;;20.50;92.50;;;;;;5041239;28;20412;-66
2022/10/30 10:17:17;;;;;;;14.00;1.40;;;20.60;92.90;;;;;;5051994;28;20925;-66
2022/10/30 10:19:58;;;;;;;15.07;2.80;;;20.80;93.20;;;;;;5053083;28;21107;-66
2022/10/30 10:22:33;;;;;;;5.00;1.20;;;21.00;92.80;;;;;;5052117;28;20474;-66
2022/10/30 10:24:58;;;;;;;15.37;1.50;;;21.20;91.50;;;;;;5052992;28;20427;-66
2022/10/30 10:27:36;;;;;;;3.13;1.23;;;21.30;91.90;;;;;;5052101;28;20439;-66
2022/10/30 10:30:02;;;;;;;3.80;0.80;;;21.60;90.80;;;;;;5052047;28;20187;-66
2022/10/30 10:32:27;;;;;;;3.30;1.80;;;21.80;91.10;;;;;;5052471;28;20432;-66
2022/10/30 10:35:05;;;;;;;3.70;1.17;;;22.00;89.40;;;;;;5052488;28;20202;-66
2022/10/30 10:38:11;;;;;;;3.30;1.00;;;22.10;89.20;;;;;;5052764;28;20550;-66
2022/10/30 10:40:47;;;;;;;6.50;1.57;;;22.20;88.70;;;;;;5039318;28;20422;-66
2022/10/30 10:43:23;;;;;;;3.37;1.37;;;22.50;86.70;;;;;;5050565;28;21100;-66
2022/10/30 10:46:33;;;;;;;8.73;1.30;;;22.50;86.10;;;;;;5052632;28;20403;-66
2022/10/30 10:49:23;;;;;;;8.17;1.97;;;22.60;86.00;;;;;;5029955;28;20440;-66
2022/10/30 10:52:09;;;;;;;3.27;1.40;;;22.70;86.90;;;;;;5050718;28;20986;-66
2022/10/30 10:54:41;;;;;;;3.73;1.50;;;22.70;86.80;;;;;;5052113;28;20423;-67
2022/10/30 10:57:11;;;;;;;7.13;1.43;;;22.80;86.20;;;;;;5051766;28;20834;-67
2022/10/30 10:59:45;;;;;;;6.80;1.70;;;23.00;88.80;;;;;;5052841;28;20750;-67
2022/10/30 11:02:34;;;;;;;3.00;1.10;;;23.10;85.10;;;;;;5052256;28;20426;-68
2022/10/30 11:05:06;;;;;;;3.23;1.43;;;23.30;80.80;;;;;;5052370;28;20400;-68
2022/10/30 11:07:43;;;;;;;5.63;1.27;;;23.30;80.80;;;;;;5052302;28;20899;-67
2022/10/30 11:10:13;;;;;;;7.20;1.63;;;23.40;79.60;;;;;;5052036;28;20431;-68
2022/10/30 11:12:39;;;;;;;8.00;1.27;;;23.50;79.60;;;;;;5043113;28;20435;-68
2022/10/30 11:15:32;;;;;;;4.70;1.30;;;23.60;78.20;;;;;;5052044;28;20502;-67
2022/10/30 11:18:04;;;;;;;2.73;1.30;;;23.70;82.70;;;;;;5052102;28;20779;-67
2022/10/30 11:20:54;;;;;;;3.27;1.27;;;23.70;82.70;;;;;;5051864;28;20415;-67
2022/10/30 11:23:43;;;;;;;5.20;1.57;;;23.60;82.60;;;;;;5051345;28;20462;-67
2022/10/30 11:26:21;;;;;;;4.23;1.43;;;23.70;84.00;;;;;;5049370;28;20499;-68
2022/10/30 11:28:52;;;;;;;4.10;1.63;;;23.70;83.90;;;;;;5051455;28;20873;-67
2022/10/30 11:31:36;;;;;;;1.40;0.60;;;23.70;85.80;;;;;;5050722;28;20418;-67
2022/10/30 11:34:17;;;;;;;12.20;1.87;;;23.60;84.90;;;;;;5050956;28;20442;-67
2022/10/30 11:36:47;;;;;;;4.13;1.37;;;23.40;85.60;;;;;;5051647;28;20839;-67
2022/10/30 11:39:17;;;;;;;4.07;1.43;;;23.30;86.10;;;;;;5052167;28;20757;-67
2022/10/30 11:41:53;;;;;;;7.33;1.37;;;23.20;86.50;;;;;;5048721;28;20420;-67
2022/10/30 11:44:18;;;;;;;2.43;1.20;;;23.10;88.40;;;;;;5051922;28;20414;-67
2022/10/30 11:46:44;;;;;;;5.83;1.20;;;23.10;90.10;;;;;;5051703;28;20423;-67
2022/10/30 11:49:26;;;;;;;12.63;2.00;;;23.00;90.30;;;;;;5051778;28;20208;-67
2022/10/30 11:51:52;;;;;;;2.93;1.40;;;23.00;91.30;;;;;;5051173;28;20207;-67
2022/10/30 11:54:20;;;;;;;2.63;1.20;;;22.90;91.50;;;;;;5051698;28;20502;-66
2022/10/30 11:56:48;;;;;;;3.60;1.40;;;22.90;91.60;;;;;;5050346;28;20456;-67
2022/10/30 11:59:20;;;;;;;3.93;1.20;;;23.00;91.50;;;;;;5051543;28;20403;-67
2022/10/30 12:02:18;;;;;;;2.00;1.10;;;23.20;91.20;;;;;;5050842;28;20428;-67
2022/10/30 12:04:43;;;;;;;4.23;1.43;;;23.30;91.10;;;;;;5051588;28;20446;-66
2022/10/30 12:07:32;;;;;;;3.53;1.40;;;23.50;89.50;;;;;;5051122;28;20783;-66
2022/10/30 12:09:59;;;;;;;5.53;1.40;;;23.50;89.80;;;;;;5048031;28;20188;-66
2022/10/30 12:12:43;;;;;;;5.03;1.13;;;23.60;88.40;;;;;;5042424;28;20929;-66
2022/10/30 12:15:16;;;;;;;2.67;1.43;;;23.70;86.30;;;;;;5049152;28;20506;-66
2022/10/30 12:17:51;;;;;;;3.33;1.07;;;23.70;88.20;;;;;;5051117;28;20446;-66
2022/10/30 12:20:17;;;;;;;3.97;1.40;;;23.80;88.30;;;;;;5051141;28;20427;-66
2022/10/30 12:22:43;;;;;;;6.50;1.60;;;23.80;86.60;;;;;;5050819;28;20416;-66
2022/10/30 12:25:27;;;;;;;11.63;2.23;;;23.70;86.30;;;;;;5051300;28;20408;-67
2022/10/30 12:28:06;;;;;;;2.17;1.20;;;23.70;87.70;;;;;;5050695;28;20209;-67
2022/10/30 12:30:41;;;;;;;3.43;1.30;;;23.60;87.70;;;;;;5050429;28;20416;-67
2022/10/30 12:33:15;;;;;;;4.23;1.50;;;23.50;88.50;;;;;;5050923;28;20439;-67
2022/10/30 12:35:56;;;;;;;3.50;1.73;;;23.40;88.30;;;;;;5051339;28;20505;-68
2022/10/30 12:38:42;;;;;;;5.80;1.80;;;23.30;88.40;;;;;;5051126;28;20510;-67
2022/10/30 12:41:16;;;;;;;4.73;1.50;;;23.20;89.30;;;;;;5050500;28;20518;-67
2022/10/30 12:43:48;;;;;;;6.23;1.80;;;23.20;89.00;;;;;;5037239;28;20446;-67
2022/10/30 12:46:37;;;;;;;1.80;0.70;;;23.20;88.40;;;;;;5054071;28;20423;-66
2022/10/30 12:49:20;;;;;;;2.90;1.00;;;23.20;88.20;;;;;;5055008;28;20415;-68
2022/10/30 12:51:57;;;;;;;6.87;2.47;;;23.10;88.00;;;;;;5054248;28;20472;-66
2022/10/30 12:54:32;;;;;;;2.93;1.30;;;23.10;86.80;;;;;;5054805;28;20415;-67
2022/10/30 12:57:13;;;;;;;7.70;1.67;;;23.00;90.30;;;;;;5053931;28;20477;-67
2022/10/30 12:59:45;;;;;;;5.63;1.53;;;23.00;90.90;;;;;;5054762;28;20438;-67